Time;durP1;ratioP1;P1;durP2;ratioP2;P2;SDS_P1;SDS_P2;PMS_P1;PMS_P2;Temp;Humidity;BMP_temperature;BMP_pressure;BME280_temperature;BME280_humidity;BME280_pressure;Samples;Min_cycle;Max_cycle;Signal;HPM_P1;HPM_P2
2023/12/17 00:01:55;;;;;;;11.03;8.60;;;;;;;-0.47;100.00;101601.50;5104952;28;20675;-83
2023/12/17 00:04:22;;;;;;;9.90;7.77;;;;;;;-0.45;100.00;101591.69;5082570;28;20192;-80
2023/12/17 00:06:52;;;;;;;8.70;7.23;;;;;;;-0.52;100.00;101595.69;5082915;28;20235;-79
2023/12/17 00:09:19;;;;;;;9.93;6.83;;;;;;;-0.55;100.00;101590.59;5087239;28;20200;-81
2023/12/17 00:11:48;;;;;;;10.37;7.00;;;;;;;-0.55;100.00;101587.97;5097018;28;20216;-81
2023/12/17 00:14:18;;;;;;;10.00;7.13;;;;;;;-0.55;100.00;101582.69;5093098;28;20211;-82
2023/12/17 00:16:55;;;;;;;8.10;6.67;;;;;;;-0.54;100.00;101584.41;5098445;28;20263;-80
2023/12/17 00:19:33;;;;;;;10.33;6.67;;;;;;;-0.50;100.00;101588.50;5078020;28;20226;-81
2023/12/17 00:22:02;;;;;;;8.30;6.30;;;;;;;-0.52;100.00;101586.00;5084644;28;20279;-79
2023/12/17 00:24:30;;;;;;;8.23;6.50;;;;;;;-0.53;100.00;101575.56;5068648;28;20196;-81
2023/12/17 00:26:58;;;;;;;9.80;6.67;;;;;;;-0.52;100.00;101590.41;5078057;28;20206;-81
2023/12/17 00:29:32;;;;;;;8.17;6.50;;;;;;;-0.56;100.00;101595.00;5079271;28;20199;-79
2023/12/17 00:31:59;;;;;;;10.00;6.80;;;;;;;-0.57;100.00;101585.44;5069735;28;20628;-81
2023/12/17 00:34:27;;;;;;;8.40;6.67;;;;;;;-0.55;100.00;101580.91;5103183;28;20660;-83
2023/12/17 00:36:54;;;;;;;7.67;6.30;;;;;;;-0.58;100.00;101585.53;5083416;28;20249;-79
2023/12/17 00:39:24;;;;;;;8.67;6.40;;;;;;;-0.60;100.00;101574.25;5063642;28;20196;-81
2023/12/17 00:41:53;;;;;;;8.10;6.47;;;;;;;-0.61;100.00;101568.19;5109672;28;20220;-81
2023/12/17 00:44:23;;;;;;;9.10;6.57;;;;;;;-0.59;100.00;101573.31;5101545;28;20215;-82
2023/12/17 00:46:52;;;;;;;9.40;6.20;;;;;;;-0.59;100.00;101576.78;5076359;28;20202;-80
2023/12/17 00:49:19;;;;;;;7.37;5.60;;;;;;;-0.60;100.00;101571.63;5083476;28;20195;-79
2023/12/17 00:51:56;;;;;;;8.87;5.73;;;;;;;-0.55;100.00;101569.53;5085013;28;20333;-82
2023/12/17 00:54:25;;;;;;;8.30;5.73;;;;;;;-0.54;100.00;101574.72;5072003;28;20279;-81
2023/12/17 00:56:55;;;;;;;9.30;6.13;;;;;;;-0.50;100.00;101589.34;5096419;28;20267;-80
2023/12/17 00:59:22;;;;;;;8.30;6.17;;;;;;;-0.54;100.00;101595.78;5082045;28;20188;-79
2023/12/17 01:01:53;;;;;;;8.97;5.70;;;;;;;-0.58;100.00;101593.44;5093944;28;20283;-83
2023/12/17 01:04:22;;;;;;;8.33;6.07;;;;;;;-0.63;100.00;101591.13;5100927;28;20195;-81
2023/12/17 01:06:49;;;;;;;8.77;5.77;;;;;;;-0.66;100.00;101587.84;5068943;28;20582;-80
2023/12/17 01:09:24;;;;;;;7.30;5.90;;;;;;;-0.71;100.00;101589.94;5064300;28;20230;-79
2023/12/17 01:11:51;;;;;;;8.93;5.93;;;;;;;-0.77;100.00;101595.59;5102094;28;20215;-79
2023/12/17 01:14:25;;;;;;;7.77;5.57;;;;;;;-0.82;100.00;101613.47;5086712;28;20199;-78
2023/12/17 01:16:54;;;;;;;8.40;6.13;;;;;;;-0.94;100.00;101615.09;5093242;28;20303;-80
2023/12/17 01:19:24;;;;;;;8.93;6.13;;;;;;;-1.00;100.00;101612.84;5099152;28;20205;-81
2023/12/17 01:21:51;;;;;;;7.30;5.83;;;;;;;-1.07;100.00;101611.53;5098855;28;20183;-80
2023/12/17 01:24:19;;;;;;;6.87;5.70;;;;;;;-1.14;100.00;101615.50;5082463;28;20200;-81
2023/12/17 01:26:46;;;;;;;7.90;5.47;;;;;;;-1.19;100.00;101618.44;5097510;28;20200;-81
2023/12/17 01:29:18;;;;;;;7.27;5.60;;;;;;;-1.21;100.00;101622.13;5082115;28;20209;-82
2023/12/17 01:31:50;;;;;;;9.43;6.73;;;;;;;-1.27;100.00;101623.34;5107732;28;20286;-80
2023/12/17 01:34:21;;;;;;;9.80;7.90;;;;;;;-1.27;100.00;101625.97;5111006;28;20278;-79
2023/12/17 01:36:49;;;;;;;9.60;7.70;;;;;;;-1.26;100.00;101611.84;5083162;28;20212;-81
2023/12/17 01:39:22;;;;;;;9.03;6.60;;;;;;;-1.25;100.00;101604.81;5097236;28;20226;-82
2023/12/17 01:41:50;;;;;;;9.23;6.60;;;;;;;-1.22;100.00;101608.09;5093998;28;20204;-81
2023/12/17 01:44:17;;;;;;;9.07;6.70;;;;;;;-1.24;100.00;101601.25;5091464;28;20216;-82
2023/12/17 01:46:44;;;;;;;9.60;7.00;;;;;;;-1.25;100.00;101594.28;5109111;28;20339;-78
2023/12/17 01:49:14;;;;;;;9.90;6.20;;;;;;;-1.26;100.00;101592.63;5073101;28;20199;-81
2023/12/17 01:51:44;;;;;;;8.87;6.53;;;;;;;-1.27;100.00;101583.88;5091522;28;20215;-80
2023/12/17 01:54:13;;;;;;;10.93;7.37;;;;;;;-1.27;100.00;101591.78;5078768;28;20282;-81
2023/12/17 01:56:43;;;;;;;7.37;5.87;;;;;;;-1.28;100.00;101595.34;5103679;28;20207;-80
2023/12/17 01:59:12;;;;;;;6.10;5.00;;;;;;;-1.30;100.00;101585.84;5099820;28;20183;-78
2023/12/17 02:01:43;;;;;;;7.50;5.00;;;;;;;-1.23;100.00;101600.31;5104024;28;20665;-80
2023/12/17 02:04:12;;;;;;;7.73;5.53;;;;;;;-1.26;100.00;101590.81;5074213;28;20207;-81
2023/12/17 02:06:44;;;;;;;8.13;5.60;;;;;;;-1.29;100.00;101595.44;5074507;28;20302;-81
2023/12/17 02:09:11;;;;;;;9.10;5.47;;;;;;;-1.31;100.00;101598.16;5087405;28;20192;-80
2023/12/17 02:11:38;;;;;;;7.63;5.87;;;;;;;-1.39;100.00;101589.91;5097542;28;20758;-80
2023/12/17 02:14:10;;;;;;;6.53;4.63;;;;;;;-1.47;100.00;101586.91;5084381;28;20208;-82
2023/12/17 02:16:38;;;;;;;6.23;4.97;;;;;;;-1.50;100.00;101580.06;5096975;28;20196;-79
2023/12/17 02:19:10;;;;;;;6.97;5.43;;;;;;;-1.45;100.00;101587.66;5092423;28;20225;-81
2023/12/17 02:21:37;;;;;;;6.63;5.30;;;;;;;-1.47;100.00;101584.28;5095791;28;20203;-80
2023/12/17 02:24:07;;;;;;;8.97;5.00;;;;;;;-1.47;100.00;101576.38;5104095;28;20197;-81
2023/12/17 02:26:35;;;;;;;7.43;4.90;;;;;;;-1.45;100.00;101543.81;5099589;28;20193;-85
2023/12/17 02:29:05;;;;;;;9.37;5.40;;;;;;;-1.38;100.00;101560.88;5102612;28;20242;-80
2023/12/17 02:31:32;;;;;;;6.77;4.87;;;;;;;-1.34;100.00;101562.38;5068288;28;20196;-79
2023/12/17 02:33:59;;;;;;;8.20;5.40;;;;;;;-1.32;100.00;101549.13;5074581;28;20242;-79
2023/12/17 02:36:29;;;;;;;7.53;5.10;;;;;;;-1.25;100.00;101547.78;5084906;28;20189;-81
2023/12/17 02:38:56;;;;;;;6.97;4.90;;;;;;;-1.26;100.00;101547.91;5085822;28;20340;-79
2023/12/17 02:41:26;;;;;;;7.30;4.90;;;;;;;-1.26;100.00;101547.91;5101698;28;20191;-81
2023/12/17 02:43:52;;;;;;;6.57;4.73;;;;;;;-1.24;100.00;101551.28;5080687;28;20199;-80
2023/12/17 02:46:21;;;;;;;6.73;4.70;;;;;;;-1.24;100.00;101552.13;5094822;28;20184;-79
2023/12/17 02:48:48;;;;;;;6.90;4.77;;;;;;;-1.23;100.00;101559.06;5097180;28;20200;-82
2023/12/17 02:51:15;;;;;;;5.40;4.60;;;;;;;-1.25;100.00;101557.47;5098360;28;20204;-83
2023/12/17 02:53:43;;;;;;;5.80;4.57;;;;;;;-1.24;100.00;101561.78;5085463;28;20269;-80
2023/12/17 02:56:09;;;;;;;5.77;4.13;;;;;;;-1.26;100.00;101558.44;5097140;28;20225;-79
2023/12/17 02:58:39;;;;;;;5.63;4.23;;;;;;;-1.33;100.00;101563.22;5104215;28;20219;-80
2023/12/17 03:01:06;;;;;;;6.07;4.50;;;;;;;-1.40;100.00;101554.03;5103869;28;20194;-81
2023/12/17 03:03:42;;;;;;;7.20;4.77;;;;;;;-1.46;100.00;101542.13;5094347;28;20212;-82
2023/12/17 03:06:13;;;;;;;7.10;5.00;;;;;;;-1.44;100.00;101542.00;5094718;28;20200;-80
2023/12/17 03:08:41;;;;;;;7.73;4.97;;;;;;;-1.53;100.00;101532.91;5108291;28;20200;-80
2023/12/17 03:11:13;;;;;;;6.80;5.53;;;;;;;-1.57;100.00;101526.16;5077727;28;20193;-81
2023/12/17 03:13:45;;;;;;;7.23;5.00;;;;;;;-1.59;100.00;101529.84;5083689;28;20226;-80
2023/12/17 03:16:13;;;;;;;7.97;5.33;;;;;;;-1.63;100.00;101537.06;5100186;28;20721;-80
2023/12/17 03:18:40;;;;;;;7.27;4.63;;;;;;;-1.67;100.00;101532.94;5105527;28;20268;-79
2023/12/17 03:21:08;;;;;;;6.57;4.53;;;;;;;-1.69;100.00;101529.56;5110845;28;20198;-80
2023/12/17 03:23:38;;;;;;;7.17;4.60;;;;;;;-1.69;100.00;101532.19;5106177;28;20191;-79
2023/12/17 03:26:07;;;;;;;8.87;4.40;;;;;;;-1.73;100.00;101529.84;5101844;28;20184;-80
2023/12/17 03:28:33;;;;;;;6.43;4.33;;;;;;;-1.72;100.00;101537.63;5099421;28;20207;-80
2023/12/17 03:31:00;;;;;;;6.50;4.53;;;;;;;-1.80;100.00;101532.84;5074144;28;20189;-81
2023/12/17 03:33:29;;;;;;;5.43;4.87;;;;;;;-1.86;100.00;101527.13;5078208;28;20704;-81
2023/12/17 03:35:58;;;;;;;7.60;5.17;;;;;;;-1.84;100.00;101528.72;5089130;28;20295;-82
2023/12/17 03:38:26;;;;;;;6.57;5.07;;;;;;;-1.88;100.00;101526.38;5099489;28;20204;-81
2023/12/17 03:40:54;;;;;;;8.97;5.20;;;;;;;-1.89;100.00;101524.69;5075079;28;20204;-81
2023/12/17 03:43:21;;;;;;;5.40;4.73;;;;;;;-1.87;100.00;101525.47;5080964;28;20258;-80
2023/12/17 03:45:52;;;;;;;8.27;5.00;;;;;;;-1.88;100.00;101537.75;5089266;28;20268;-78
2023/12/17 03:48:21;;;;;;;5.93;4.70;;;;;;;-1.92;100.00;101532.78;5102441;28;20196;-82
2023/12/17 03:50:49;;;;;;;6.70;5.10;;;;;;;-1.91;100.00;101537.06;5100418;28;20273;-83
2023/12/17 03:53:18;;;;;;;7.10;4.80;;;;;;;-1.93;100.00;101534.56;5107186;28;20277;-80
2023/12/17 03:55:48;;;;;;;6.83;5.10;;;;;;;-1.96;100.00;101528.66;5108178;28;20230;-79
2023/12/17 03:58:26;;;;;;;7.57;5.60;;;;;;;-1.95;100.00;101518.03;5098504;28;20222;-80
2023/12/17 04:00:55;;;;;;;7.23;5.43;;;;;;;-1.95;100.00;101509.28;5088462;28;20191;-80
2023/12/17 04:03:25;;;;;;;19.37;8.53;;;;;;;-1.96;100.00;101499.75;5091614;28;20203;-79
2023/12/17 04:05:57;;;;;;;14.90;7.80;;;;;;;-1.94;100.00;101506.59;5107563;28;20184;-80
2023/12/17 04:08:45;;;;;;;16.33;8.07;;;;;;;-1.89;100.00;101495.78;5097706;28;20192;-81
2023/12/17 04:11:13;;;;;;;12.37;6.63;;;;;;;-1.90;100.00;101487.06;5101095;28;20611;-79
2023/12/17 04:13:42;;;;;;;11.23;6.20;;;;;;;-1.92;100.00;101475.81;5107551;28;20211;-80
2023/12/17 04:16:11;;;;;;;5.87;4.57;;;;;;;-1.89;100.00;101480.88;5079354;28;20246;-81
2023/12/17 04:18:40;;;;;;;10.17;5.37;;;;;;;-1.92;100.00;101475.81;5093772;28;20276;-82
2023/12/17 04:21:14;;;;;;;9.17;5.80;;;;;;;-1.87;100.00;101478.97;5088445;28;20203;-79
2023/12/17 04:23:49;;;;;;;10.37;6.27;;;;;;;-1.85;100.00;101473.63;5091498;28;20215;-80
2023/12/17 04:26:24;;;;;;;14.73;8.00;;;;;;;-1.88;100.00;101479.09;5107894;28;20195;-82
2023/12/17 04:28:59;;;;;;;18.17;8.27;;;;;;;-1.89;100.00;101480.03;5104714;28;20253;-80
2023/12/17 04:31:26;;;;;;;12.07;6.57;;;;;;;-1.87;100.00;101486.88;5064906;28;20200;-81
2023/12/17 04:33:53;;;;;;;26.77;10.97;;;;;;;-1.81;100.00;101488.28;5102158;28;20287;-80
2023/12/17 04:36:20;;;;;;;16.37;9.20;;;;;;;-1.81;100.00;101497.00;5073490;28;20196;-80
2023/12/17 04:38:48;;;;;;;25.07;10.77;;;;;;;-1.79;100.00;101489.88;5085396;28;20195;-80
2023/12/17 04:41:16;;;;;;;19.03;8.37;;;;;;;-1.80;100.00;101485.56;5092077;28;20746;-82
2023/12/17 04:43:47;;;;;;;16.77;7.83;;;;;;;-1.81;100.00;101485.63;5104729;28;20192;-83
2023/12/17 04:46:15;;;;;;;12.57;7.13;;;;;;;-1.80;100.00;101489.97;5087950;28;20218;-80
2023/12/17 04:48:42;;;;;;;8.97;5.80;;;;;;;-1.79;100.00;101491.66;5098180;28;20241;-80
2023/12/17 04:51:13;;;;;;;11.33;5.60;;;;;;;-1.79;100.00;101486.41;5103855;28;20283;-80
2023/12/17 04:53:43;;;;;;;11.67;6.63;;;;;;;-1.77;100.00;101496.84;5106801;28;20223;-84
2023/12/17 04:56:11;;;;;;;11.13;6.20;;;;;;;-1.79;100.00;101495.13;5109718;28;20238;-80
2023/12/17 04:58:38;;;;;;;21.10;10.97;;;;;;;-1.76;100.00;101499.34;5093873;28;20195;-80
2023/12/17 05:01:05;;;;;;;16.00;8.87;;;;;;;-1.78;100.00;101493.34;5085002;28;20218;-80
2023/12/17 05:03:33;;;;;;;18.50;10.70;;;;;;;-1.77;100.00;101494.22;5111323;28;20211;-80
2023/12/17 05:06:00;;;;;;;22.13;14.07;;;;;;;-1.77;100.00;101496.84;5095148;28;20188;-79
2023/12/17 05:08:27;;;;;;;23.73;15.07;;;;;;;-1.77;100.00;101499.47;5103045;28;20199;-82
2023/12/17 05:10:55;;;;;;;20.50;13.20;;;;;;;-1.81;100.00;101497.00;5113332;28;20217;-79
2023/12/17 05:13:27;;;;;;;12.53;8.60;;;;;;;-1.82;100.00;101497.94;5106922;28;20215;-79
2023/12/17 05:15:55;;;;;;;14.20;8.97;;;;;;;-1.81;100.00;101501.41;5111021;28;20191;-81
2023/12/17 05:18:24;;;;;;;8.07;5.87;;;;;;;-1.81;100.00;101499.63;5081363;28;20196;-80
2023/12/17 05:20:54;;;;;;;6.27;5.10;;;;;;;-1.80;100.00;101496.06;5075920;28;20314;-81
2023/12/17 05:23:23;;;;;;;6.57;4.27;;;;;;;-1.77;100.00;101513.41;5108626;28;20196;-80
2023/12/17 05:25:53;;;;;;;6.20;4.10;;;;;;;-1.78;100.00;101511.75;5104641;28;20188;-78
2023/12/17 05:28:22;;;;;;;4.80;3.60;;;;;;;-1.75;100.00;101511.53;5096127;28;20218;-81
2023/12/17 05:30:50;;;;;;;4.70;3.50;;;;;;;-1.68;100.00;101507.59;5084409;28;20300;-80
2023/12/17 05:33:28;;;;;;;5.90;3.63;;;;;;;-1.63;100.00;101505.50;5085738;28;20210;-80
2023/12/17 05:35:56;;;;;;;4.33;3.27;;;;;;;-1.59;100.00;101504.41;5072882;28;20193;-80
2023/12/17 05:38:28;;;;;;;5.40;3.50;;;;;;;-1.55;100.00;101513.78;5097448;28;20192;-80
2023/12/17 05:40:55;;;;;;;5.13;3.73;;;;;;;-1.55;100.00;101515.56;5092947;28;20208;-81
2023/12/17 05:43:23;;;;;;;4.67;3.80;;;;;;;-1.56;100.00;101519.13;5101302;28;20207;-79
2023/12/17 05:45:51;;;;;;;4.43;3.53;;;;;;;-1.62;100.00;101524.75;5074842;28;20223;-80
2023/12/17 05:48:24;;;;;;;4.93;3.60;;;;;;;-1.63;100.00;101534.44;5094966;28;20196;-79
2023/12/17 05:50:52;;;;;;;4.67;3.83;;;;;;;-1.67;100.00;101534.72;5099297;28;20280;-80
2023/12/17 05:53:19;;;;;;;5.53;3.57;;;;;;;-1.71;100.00;101531.44;5076659;28;20216;-80
2023/12/17 05:56:00;;;;;;;4.80;3.63;;;;;;;-1.75;100.00;101535.19;5099414;28;20232;-79
2023/12/17 05:58:29;;;;;;;3.73;3.27;;;;;;;-1.75;100.00;101529.94;5101574;28;20199;-79
2023/12/17 06:00:59;;;;;;;4.87;3.57;;;;;;;-1.74;100.00;101528.16;5099417;28;20715;-81
2023/12/17 06:03:30;;;;;;;6.20;3.90;;;;;;;-1.74;100.00;101528.16;5100321;28;20282;-79
2023/12/17 06:05:57;;;;;;;13.53;7.33;;;;;;;-1.73;100.00;101532.50;5099980;28;20226;-82
2023/12/17 06:08:25;;;;;;;13.03;8.60;;;;;;;-1.72;100.00;101542.03;5105343;28;20278;-79
2023/12/17 06:10:52;;;;;;;9.57;5.97;;;;;;;-1.71;100.00;101541.94;5105619;28;20207;-81
2023/12/17 06:13:19;;;;;;;10.03;7.33;;;;;;;-1.71;100.00;101544.56;5105842;28;20227;-79
2023/12/17 06:15:48;;;;;;;9.83;6.27;;;;;;;-1.68;100.00;101547.00;5103516;28;20664;-83
2023/12/17 06:18:20;;;;;;;10.67;8.13;;;;;;;-1.69;100.00;101547.13;5100551;28;20192;-80
2023/12/17 06:20:49;;;;;;;10.93;8.27;;;;;;;-1.71;100.00;101547.22;5107093;28;20215;-79
2023/12/17 06:23:22;;;;;;;11.53;7.97;;;;;;;-1.77;100.00;101551.06;5099766;28;20196;-79
2023/12/17 06:25:52;;;;;;;7.20;5.50;;;;;;;-1.80;100.00;101543.38;5075432;28;20222;-81
2023/12/17 06:28:39;;;;;;;9.30;5.50;;;;;;;-1.79;100.00;101557.34;5101490;28;20208;-82
2023/12/17 06:31:17;;;;;;;6.60;4.90;;;;;;;-1.84;100.00;101551.53;5111597;28;20180;-79
2023/12/17 06:33:43;;;;;;;7.13;5.53;;;;;;;-1.90;100.00;101558.00;5089862;28;20219;-80
2023/12/17 06:36:12;;;;;;;7.37;5.60;;;;;;;-1.94;100.00;101559.13;5086882;28;20270;-81
2023/12/17 06:38:40;;;;;;;8.20;7.40;;;;;;;-1.95;100.00;101556.59;5103052;28;20192;-79
2023/12/17 06:41:09;;;;;;;13.37;11.97;;;;;;;-1.98;100.00;101555.00;5085916;28;20185;-82
2023/12/17 06:43:42;;;;;;;13.67;11.20;;;;;;;-1.98;100.00;101560.25;5093148;28;20192;-81
2023/12/17 06:46:17;;;;;;;10.97;9.40;;;;;;;-2.05;100.00;101564.16;5108860;28;20656;-81
2023/12/17 06:48:46;;;;;;;8.07;7.00;;;;;;;-2.02;100.00;101563.16;5100737;28;20225;-80
2023/12/17 06:51:13;;;;;;;10.00;8.20;;;;;;;-2.01;100.00;101560.44;5069119;28;20257;-79
2023/12/17 06:53:49;;;;;;;10.37;8.60;;;;;;;-2.02;100.00;101558.75;5098926;28;20203;-79
2023/12/17 06:56:20;;;;;;;7.93;6.83;;;;;;;-1.98;100.00;101557.63;5065697;28;20286;-80
2023/12/17 06:58:52;;;;;;;7.77;5.67;;;;;;;-1.96;100.00;101555.72;5084254;28;20538;-80
2023/12/17 07:01:21;;;;;;;8.90;5.23;;;;;;;-1.94;100.00;101559.13;5093454;28;20195;-82
2023/12/17 07:03:49;;;;;;;6.53;4.77;;;;;;;-1.92;100.00;101561.66;5102074;28;20200;-80
2023/12/17 07:06:16;;;;;;;6.47;5.53;;;;;;;-1.94;100.00;101564.38;5108994;28;20207;-81
2023/12/17 07:08:49;;;;;;;8.17;5.40;;;;;;;-1.92;100.00;101562.53;5109253;28;20279;-80
2023/12/17 07:11:16;;;;;;;6.47;5.37;;;;;;;-1.91;100.00;101558.94;5102406;28;20212;-81
2023/12/17 07:13:43;;;;;;;6.33;4.90;;;;;;;-1.84;100.00;101560.25;5085862;28;20302;-80
2023/12/17 07:16:23;;;;;;;5.33;4.17;;;;;;;-1.79;100.00;101558.19;5100605;28;20202;-79
2023/12/17 07:18:50;;;;;;;5.33;3.93;;;;;;;-1.71;100.00;101551.63;5085299;28;20199;-80
2023/12/17 07:21:19;;;;;;;4.77;3.83;;;;;;;-1.62;100.00;101551.03;5106052;28;20207;-79
2023/12/17 07:23:51;;;;;;;3.47;3.17;;;;;;;-1.53;100.00;101532.06;5098762;28;20194;-79
2023/12/17 07:26:22;;;;;;;4.47;3.40;;;;;;;-1.44;100.00;101532.34;5092553;28;20699;-80
2023/12/17 07:28:49;;;;;;;5.33;4.20;;;;;;;-1.38;100.00;101536.38;5092186;28;20648;-78
2023/12/17 07:31:18;;;;;;;5.13;4.27;;;;;;;-1.39;100.00;101530.25;5084922;28;20279;-79
2023/12/17 07:33:45;;;;;;;5.67;4.10;;;;;;;-1.32;100.00;101530.72;5089799;28;20222;-80
2023/12/17 07:36:17;;;;;;;6.50;4.30;;;;;;;-1.27;100.00;101525.19;5092979;28;20184;-80
2023/12/17 07:38:48;;;;;;;6.07;4.23;;;;;;;-1.21;100.00;101525.59;5089176;28;20188;-79
2023/12/17 07:41:17;;;;;;;12.37;8.17;;;;;;;-1.14;100.00;101523.44;5086961;28;20270;-80
2023/12/17 07:43:49;;;;;;;10.90;6.67;;;;;;;-1.08;100.00;101523.91;5085914;28;20200;-79
2023/12/17 07:46:16;;;;;;;11.57;6.87;;;;;;;-1.01;100.00;101524.34;5089069;28;20676;-78
2023/12/17 07:48:43;;;;;;;15.07;9.50;;;;;;;-0.93;100.00;101533.41;5087767;28;20329;-81
2023/12/17 07:51:12;;;;;;;10.53;6.97;;;;;;;-0.86;100.00;101541.75;5088931;28;20188;-79
2023/12/17 07:53:42;;;;;;;10.40;7.07;;;;;;;-0.78;100.00;101552.63;5093600;28;20706;-78
2023/12/17 07:56:11;;;;;;;9.43;6.53;;;;;;;-0.71;100.00;101550.44;5087201;28;20224;-80
2023/12/17 07:58:39;;;;;;;7.80;5.43;;;;;;;-0.63;100.00;101546.34;5094291;28;20207;-78
2023/12/17 08:01:08;;;;;;;7.07;5.70;;;;;;;-0.53;100.00;101549.22;5091818;28;20246;-80
2023/12/17 08:03:39;;;;;;;10.50;6.57;;;;;;;-0.42;100.00;101538.81;5092167;28;20188;-79
2023/12/17 08:06:07;;;;;;;6.17;4.80;;;;;;;-0.35;100.00;101533.97;5080675;28;20211;-78
2023/12/17 08:08:37;;;;;;;4.90;4.07;;;;;;;-0.27;100.00;101537.78;5107315;28;20199;-82
2023/12/17 08:11:11;;;;;;;4.97;4.10;;;;;;;-0.23;100.00;101531.34;5103152;28;20196;-83
2023/12/17 08:13:41;;;;;;;4.13;3.50;;;;;;;-0.12;100.00;101526.19;5098824;28;20224;-79
2023/12/17 08:16:11;;;;;;;4.33;3.43;;;;;;;-0.03;100.00;101520.28;5108319;28;20218;-82
2023/12/17 08:18:38;;;;;;;5.20;3.40;;;;;;;0.07;100.00;101524.94;5090366;28;20196;-80
2023/12/17 08:21:06;;;;;;;5.20;3.30;;;;;;;0.19;100.00;101522.28;5106549;28;20207;-79
2023/12/17 08:23:36;;;;;;;4.40;2.73;;;;;;;0.31;100.00;101516.16;5111711;28;20196;-78
2023/12/17 08:26:09;;;;;;;4.40;3.00;;;;;;;0.42;100.00;101515.41;5095218;28;20231;-80
2023/12/17 08:28:36;;;;;;;3.07;2.77;;;;;;;0.52;100.00;101512.94;5086251;28;20185;-76
2023/12/17 08:31:08;;;;;;;3.20;2.80;;;;;;;0.64;100.00;101515.56;5094739;28;20211;-76
2023/12/17 08:33:38;;;;;;;4.37;3.10;;;;;;;0.75;100.00;101506.84;5094385;28;20222;-76
2023/12/17 08:36:08;;;;;;;3.27;2.93;;;;;;;0.87;100.00;101513.88;5101610;27;20728;-81
2023/12/17 08:38:38;;;;;;;3.13;2.70;;;;;;;0.98;100.00;101519.19;5096886;28;20196;-81
2023/12/17 08:41:07;;;;;;;3.03;2.67;;;;;;;1.09;100.00;101523.69;5103204;28;20275;-79
2023/12/17 08:43:38;;;;;;;4.83;2.53;;;;;;;1.20;100.00;101527.25;5093086;28;20199;-79
2023/12/17 08:46:07;;;;;;;3.50;2.83;;;;;;;1.28;100.00;101530.16;5096350;28;20195;-79
2023/12/17 08:48:34;;;;;;;4.43;3.57;;;;;;;1.38;100.00;101530.31;5091707;28;20245;-80
2023/12/17 08:51:01;;;;;;;5.10;3.70;;;;;;;1.48;100.00;101518.13;5092879;28;20219;-81
2023/12/17 08:53:28;;;;;;;4.70;3.70;;;;;;;1.57;100.00;101522.69;5093426;28;20219;-79
2023/12/17 08:55:55;;;;;;;5.27;3.87;;;;;;;1.65;100.00;101515.03;5092717;28;20231;-82
2023/12/17 08:58:22;;;;;;;6.50;5.17;;;;;;;1.77;100.00;101516.72;5063463;28;20199;-80
2023/12/17 09:00:49;;;;;;;5.73;4.53;;;;;;;1.86;100.00;101514.34;5071435;28;20280;-81
2023/12/17 09:03:17;;;;;;;5.60;4.00;;;;;;;1.95;100.00;101519.78;5094852;28;20196;-80
2023/12/17 09:05:53;;;;;;;4.37;3.00;;;;;;;2.07;100.00;101512.69;5092683;28;20241;-79
2023/12/17 09:08:19;;;;;;;4.70;3.10;;;;;;;2.21;100.00;101505.34;5093080;28;20241;-78
2023/12/17 09:10:48;;;;;;;5.97;3.30;;;;;;;2.33;100.00;101503.56;5100643;28;20679;-80
2023/12/17 09:13:20;;;;;;;3.43;2.90;;;;;;;2.46;100.00;101495.50;5085786;28;20284;-79
2023/12/17 09:15:50;;;;;;;4.53;3.30;;;;;;;2.55;100.00;101505.34;5103247;28;20278;-80
2023/12/17 09:18:21;;;;;;;4.63;3.20;;;;;;;2.62;100.00;101494.13;5107845;28;20203;-82
2023/12/17 09:20:48;;;;;;;4.00;3.60;;;;;;;2.71;100.00;101497.81;5096687;28;20247;-81
2023/12/17 09:23:17;;;;;;;6.80;4.13;;;;;;;2.82;100.00;101504.91;5101145;28;20191;-80
2023/12/17 09:25:44;;;;;;;5.47;3.80;;;;;;;2.96;100.00;101496.69;5092884;28;20203;-79
2023/12/17 09:28:14;;;;;;;4.30;3.90;;;;;;;2.97;100.00;101493.91;5080965;28;20203;-78
2023/12/17 09:30:42;;;;;;;5.40;4.03;;;;;;;3.03;100.00;101498.69;5090550;28;20192;-80
2023/12/17 09:33:12;;;;;;;4.07;3.40;;;;;;;3.08;100.00;101490.38;5088031;28;20272;-80
2023/12/17 09:35:46;;;;;;;5.33;4.13;;;;;;;3.23;100.00;101491.75;5057966;28;20192;-81
2023/12/17 09:38:14;;;;;;;4.63;3.47;;;;;;;3.29;100.00;101495.72;5100478;28;20283;-79
2023/12/17 09:40:48;;;;;;;6.07;4.33;;;;;;;3.33;100.00;101486.53;5084295;28;20192;-80
2023/12/17 09:43:15;;;;;;;4.63;3.87;;;;;;;3.39;100.00;101488.69;5091416;28;20208;-79
2023/12/17 09:45:47;;;;;;;4.37;3.47;;;;;;;3.46;100.00;101480.09;5092633;28;20242;-80
2023/12/17 09:48:16;;;;;;;5.77;4.20;;;;;;;3.54;100.00;101484.75;5099217;28;20256;-80
2023/12/17 09:50:44;;;;;;;5.27;3.97;;;;;;;3.62;100.00;101484.94;5087649;28;20187;-81
2023/12/17 09:53:14;;;;;;;4.93;3.93;;;;;;;3.70;100.00;101477.16;5090052;28;20250;-79
2023/12/17 09:55:43;;;;;;;4.90;3.80;;;;;;;3.81;100.00;101479.75;5095581;28;20231;-80
2023/12/17 09:58:09;;;;;;;9.53;5.23;;;;;;;3.91;100.00;101477.16;5112085;28;20206;-80
2023/12/17 10:00:36;;;;;;;7.50;4.73;;;;;;;4.01;100.00;101485.16;5065792;28;20195;-78
2023/12/17 10:03:04;;;;;;;9.57;4.70;;;;;;;4.12;100.00;101474.44;5102020;28;20283;-79
2023/12/17 10:05:31;;;;;;;4.00;2.87;;;;;;;4.22;100.00;101477.97;5078158;28;20723;-79
2023/12/17 10:08:01;;;;;;;2.80;2.47;;;;;;;4.34;100.00;101472.44;5102296;28;20690;-81
2023/12/17 10:10:30;;;;;;;2.73;2.53;;;;;;;4.48;100.00;101484.47;5104581;28;20183;-78
2023/12/17 10:13:00;;;;;;;5.10;4.10;;;;;;;4.60;100.00;101472.81;5103103;28;20192;-80
2023/12/17 10:15:36;;;;;;;5.00;3.70;;;;;;;4.73;100.00;101481.34;5088782;28;20268;-78
2023/12/17 10:18:06;;;;;;;5.57;3.33;;;;;;;4.85;100.00;101474.13;5088109;28;20208;-79
2023/12/17 10:20:45;;;;;;;4.37;3.37;;;;;;;5.00;100.00;101463.88;5108806;28;20307;-79
2023/12/17 10:23:13;;;;;;;3.20;2.83;;;;;;;5.09;100.00;101452.44;5084916;28;20199;-78
2023/12/17 10:25:40;;;;;;;3.33;2.97;;;;;;;5.19;100.00;101459.44;5068273;28;20625;-80
2023/12/17 10:28:09;;;;;;;3.37;2.77;;;;;;;5.27;100.00;101456.09;5102223;28;20202;-79
2023/12/17 10:30:39;;;;;;;3.20;2.70;;;;;;;5.38;100.00;101466.53;5066885;28;20682;-81
2023/12/17 10:33:10;;;;;;;3.70;3.30;;;;;;;5.54;100.00;101453.53;5086710;28;20208;-78
2023/12/17 10:35:40;;;;;;;4.70;3.80;;;;;;;5.63;100.00;101450.00;5089970;28;20303;-82
2023/12/17 10:38:10;;;;;;;3.70;2.97;;;;;;;5.75;100.00;101443.53;5103046;28;20682;-80
2023/12/17 10:40:40;;;;;;;3.27;2.97;;;;;;;5.86;100.00;101447.84;5103515;28;20195;-78
2023/12/17 10:43:07;;;;;;;2.80;2.50;;;;;;;5.92;100.00;101447.28;5088907;28;20211;-78
2023/12/17 10:45:37;;;;;;;3.87;3.47;;;;;;;6.04;100.00;101446.13;5095281;28;20192;-79
2023/12/17 10:48:06;;;;;;;3.43;3.13;;;;;;;6.12;100.00;101450.69;5068918;28;20241;-79
2023/12/17 10:50:35;;;;;;;3.70;3.30;;;;;;;6.21;100.00;101455.13;5103836;28;20195;-79
2023/12/17 10:53:04;;;;;;;5.00;2.90;;;;;;;6.28;100.00;101453.56;5106097;28;20191;-79
2023/12/17 10:55:32;;;;;;;2.50;2.30;;;;;;;6.39;100.00;101450.69;5083038;28;20324;-81
2023/12/17 10:58:07;;;;;;;6.23;2.23;;;;;;;6.46;100.00;101446.47;5105732;28;20199;-79
2023/12/17 11:00:36;;;;;;;2.93;2.47;;;;;;;6.58;100.00;101445.25;5102003;28;20195;-79
2023/12/17 11:03:06;;;;;;;3.80;2.40;;;;;;;6.63;100.00;101440.31;5074380;28;20210;-80
2023/12/17 11:05:34;;;;;;;2.63;2.43;;;;;;;6.71;100.00;101436.94;5085141;28;20199;-79
2023/12/17 11:08:05;;;;;;;2.67;2.00;;;;;;;6.83;100.00;101432.19;5096432;28;20188;-79
2023/12/17 11:10:38;;;;;;;2.90;1.90;;;;;;;6.93;100.00;101432.97;5098188;28;20204;-79
2023/12/17 11:13:10;;;;;;;2.43;1.80;;;;;;;7.05;100.00;101426.41;5101680;28;20293;-80
2023/12/17 11:15:39;;;;;;;2.00;1.80;;;;;;;7.11;100.00;101424.97;5081151;28;20231;-79
2023/12/17 11:18:17;;;;;;;2.30;2.10;;;;;;;7.19;100.00;101420.53;5104439;28;20236;-79
2023/12/17 11:20:48;;;;;;;2.13;1.90;;;;;;;7.28;100.00;101422.28;5098553;28;20229;-79
2023/12/17 11:23:18;;;;;;;2.47;2.23;;;;;;;7.34;100.00;101419.00;5086926;28;20656;-76
2023/12/17 11:25:47;;;;;;;3.97;3.13;;;;;;;7.48;100.00;101415.75;5098524;28;20202;-79
2023/12/17 11:28:34;;;;;;;3.87;3.17;;;;;;;7.55;100.00;101413.31;5106537;28;20195;-78